Time;durP1;ratioP1;P1;durP2;ratioP2;P2;SDS_P1;SDS_P2;PMS_P1;PMS_P2;Temp;Humidity;BMP_temperature;BMP_pressure;BME280_temperature;BME280_humidity;BME280_pressure;Samples;Min_cycle;Max_cycle;Signal;HPM_P1;HPM_P2
2022/01/02 00:00:19;;;;;;;17.88;9.13;;;9.30;99.90;;;;;;4996188;28;20050;-74
2022/01/02 00:02:51;;;;;;;18.60;8.85;;;9.30;99.90;;;;;;4981680;28;20046;-74
2022/01/02 00:05:20;;;;;;;20.48;8.75;;;9.40;99.90;;;;;;4979179;28;20459;-74
2022/01/02 00:07:58;;;;;;;19.08;9.88;;;9.40;99.90;;;;;;4981464;28;20262;-74
2022/01/02 00:10:26;;;;;;;16.95;9.60;;;9.30;99.90;;;;;;5033537;23;20097;-74
2022/01/02 00:12:58;;;;;;;16.50;9.02;;;9.30;99.90;;;;;;4979226;28;20542;-74
2022/01/02 00:15:26;;;;;;;19.25;9.45;;;9.30;99.90;;;;;;4979968;28;20140;-74
2022/01/02 00:18:05;;;;;;;17.65;9.68;;;9.30;99.90;;;;;;4994831;28;20871;-74
2022/01/02 00:20:32;;;;;;;18.38;8.68;;;9.30;99.90;;;;;;4979467;28;20274;-73
2022/01/02 00:23:00;;;;;;;17.85;9.63;;;9.30;99.90;;;;;;4983293;28;20137;-74
2022/01/02 00:25:32;;;;;;;16.42;9.02;;;9.30;99.90;;;;;;4983483;28;20066;-74
2022/01/02 00:28:00;;;;;;;18.58;9.35;;;9.30;99.90;;;;;;4985074;28;20046;-73
2022/01/02 00:30:41;;;;;;;20.52;10.10;;;9.20;99.90;;;;;;4991953;28;20042;-74
2022/01/02 00:33:08;;;;;;;19.92;9.38;;;9.30;99.90;;;;;;4971723;28;20145;-74
2022/01/02 00:35:36;;;;;;;17.88;9.30;;;9.30;99.90;;;;;;4980239;28;20051;-74
2022/01/02 00:38:04;;;;;;;18.95;9.70;;;9.40;99.90;;;;;;4981872;28;20069;-74
2022/01/02 00:40:35;;;;;;;17.08;10.02;;;9.40;99.90;;;;;;4982044;28;20467;-75
2022/01/02 00:43:04;;;;;;;24.13;10.55;;;9.30;99.90;;;;;;4982629;28;20062;-74
2022/01/02 00:45:40;;;;;;;19.98;9.82;;;9.30;99.90;;;;;;4984124;28;20089;-73
2022/01/02 00:48:32;;;;;;;19.50;10.50;;;9.30;99.90;;;;;;4984790;28;20054;-74
2022/01/02 00:51:16;;;;;;;19.45;10.57;;;9.40;99.90;;;;;;4983035;28;20546;-73
2022/01/02 00:53:47;;;;;;;19.05;9.70;;;9.40;99.90;;;;;;4975215;28;20128;-74
2022/01/02 00:56:17;;;;;;;17.30;9.88;;;9.40;99.90;;;;;;4983873;28;20537;-74
2022/01/02 00:58:56;;;;;;;26.92;10.45;;;9.30;99.90;;;;;;4999508;28;20038;-73
2022/01/02 01:01:27;;;;;;;22.67;10.63;;;9.30;99.90;;;;;;5004140;28;20515;-74
2022/01/02 01:03:55;;;;;;;21.88;10.65;;;9.20;99.90;;;;;;5000226;28;20141;-73
2022/01/02 01:06:29;;;;;;;24.35;10.60;;;9.10;99.90;;;;;;4993569;28;20057;-74
2022/01/02 01:09:00;;;;;;;27.38;11.45;;;9.10;99.90;;;;;;4982074;28;20482;-74
2022/01/02 01:11:28;;;;;;;24.65;10.75;;;9.10;99.90;;;;;;4977303;28;20502;-74
2022/01/02 01:13:57;;;;;;;19.42;10.80;;;9.10;99.90;;;;;;4973073;28;20113;-72
2022/01/02 01:16:23;;;;;;;19.13;9.90;;;9.10;99.90;;;;;;4982658;28;20518;-73
2022/01/02 01:18:52;;;;;;;19.02;11.27;;;9.10;99.90;;;;;;4983064;28;20108;-74
2022/01/02 01:21:19;;;;;;;22.17;11.77;;;9.10;99.90;;;;;;4993324;28;20051;-74
2022/01/02 01:23:46;;;;;;;24.25;11.93;;;9.10;99.90;;;;;;4991959;28;20072;-74
2022/01/02 01:26:16;;;;;;;19.85;11.98;;;9.10;99.90;;;;;;4976049;28;20145;-74
2022/01/02 01:28:43;;;;;;;22.38;11.70;;;9.10;99.90;;;;;;4972753;28;20059;-74
2022/01/02 01:31:10;;;;;;;22.20;11.80;;;9.10;99.90;;;;;;4988930;28;20097;-74
2022/01/02 01:33:37;;;;;;;23.08;11.88;;;9.20;99.90;;;;;;4964593;28;20054;-74
2022/01/02 01:36:04;;;;;;;23.75;11.48;;;9.20;99.90;;;;;;4979702;28;20539;-75
2022/01/02 01:38:30;;;;;;;19.88;10.10;;;9.30;99.90;;;;;;4978314;28;20507;-74
2022/01/02 01:41:05;;;;;;;21.70;10.48;;;9.30;99.90;;;;;;4981053;28;20050;-74
2022/01/02 01:43:50;;;;;;;19.55;10.75;;;9.30;99.90;;;;;;4996903;28;20325;-74
2022/01/02 01:46:17;;;;;;;22.42;10.40;;;9.30;99.90;;;;;;4970996;28;20140;-74
2022/01/02 01:48:53;;;;;;;19.15;10.52;;;9.40;99.90;;;;;;4977638;28;20050;-74
2022/01/02 01:51:19;;;;;;;19.05;10.60;;;9.40;99.90;;;;;;4990004;28;20061;-73
2022/01/02 01:53:47;;;;;;;22.60;11.35;;;9.40;99.90;;;;;;4987062;28;20068;-74
2022/01/02 01:56:14;;;;;;;21.10;11.38;;;9.40;99.90;;;;;;4992766;28;20084;-74
2022/01/02 01:58:41;;;;;;;24.15;11.73;;;9.40;99.90;;;;;;4966511;28;20303;-73
2022/01/02 02:01:08;;;;;;;19.60;11.27;;;9.40;99.90;;;;;;4975485;28;20054;-74
2022/01/02 02:03:45;;;;;;;20.85;11.40;;;9.40;99.90;;;;;;4982864;28;20054;-73
2022/01/02 02:06:13;;;;;;;24.40;12.25;;;9.40;99.90;;;;;;4989885;28;20070;-74
2022/01/02 02:08:40;;;;;;;25.85;12.90;;;9.40;99.90;;;;;;5007130;28;20046;-73
2022/01/02 02:11:07;;;;;;;27.02;14.27;;;9.40;99.90;;;;;;4940193;28;1043399;-74
2022/01/02 02:13:38;;;;;;;28.10;14.70;;;9.30;99.90;;;;;;4979353;28;20141;-73
2022/01/02 02:16:06;;;;;;;28.50;14.93;;;9.30;99.90;;;;;;4978586;28;20047;-73
2022/01/02 02:18:35;;;;;;;34.17;14.95;;;9.30;99.90;;;;;;4974664;28;20330;-74
2022/01/02 02:21:02;;;;;;;28.90;15.25;;;9.20;99.90;;;;;;4980864;28;20487;-74
2022/01/02 02:23:31;;;;;;;28.33;14.95;;;9.20;99.90;;;;;;4964370;28;20466;-74
2022/01/02 02:25:58;;;;;;;38.30;14.43;;;9.20;99.90;;;;;;4975573;28;20142;-74
2022/01/02 02:28:27;;;;;;;29.58;15.63;;;9.10;99.90;;;;;;4959927;28;20241;-73
2022/01/02 02:30:56;;;;;;;29.55;14.60;;;9.10;99.90;;;;;;4964794;28;20104;-73
2022/01/02 02:33:24;;;;;;;29.67;14.40;;;9.00;99.90;;;;;;4978723;28;20665;-74
2022/01/02 02:35:51;;;;;;;33.03;15.45;;;8.90;99.90;;;;;;4975644;28;20447;-74
2022/01/02 02:38:19;;;;;;;30.60;14.48;;;8.90;99.90;;;;;;4959805;28;20105;-74
2022/01/02 02:40:49;;;;;;;33.00;16.45;;;8.90;99.90;;;;;;4970430;28;20400;-74
2022/01/02 02:49:00;;;;;;;36.05;17.92;;;8.90;99.90;;;;;;4976834;28;20093;-74
2022/01/02 02:51:54;;;;;;;34.60;17.10;;;8.90;99.90;;;;;;4975453;28;20054;-74
2022/01/02 02:54:40;;;;;;;28.95;15.48;;;8.90;99.90;;;;;;4978003;28;20050;-73
2022/01/02 02:57:12;;;;;;;30.25;15.25;;;8.90;99.90;;;;;;4978563;28;20050;-73
2022/01/02 02:59:40;;;;;;;27.17;14.18;;;9.00;99.90;;;;;;4978940;28;20427;-74
2022/01/02 03:02:08;;;;;;;32.05;14.52;;;8.90;99.90;;;;;;4978878;28;20129;-73
2022/01/02 03:04:44;;;;;;;27.20;13.18;;;9.00;99.90;;;;;;4963915;28;20113;-74
2022/01/02 03:07:11;;;;;;;27.77;13.52;;;9.00;99.90;;;;;;4964317;28;20047;-74
2022/01/02 03:09:46;;;;;;;25.25;12.63;;;9.10;99.90;;;;;;4991111;28;20042;-75
2022/01/02 03:12:14;;;;;;;26.48;12.82;;;9.10;99.90;;;;;;4988218;28;20057;-74
2022/01/02 03:14:45;;;;;;;24.95;13.15;;;9.10;99.90;;;;;;4979075;28;20104;-74
2022/01/02 03:17:14;;;;;;;27.80;14.10;;;9.10;99.90;;;;;;4977300;28;20050;-73
2022/01/02 03:19:41;;;;;;;30.75;14.00;;;9.10;99.90;;;;;;4979000;28;20050;-73
2022/01/02 03:22:12;;;;;;;24.05;13.57;;;9.20;99.90;;;;;;4981445;28;20042;-74
2022/01/02 03:24:39;;;;;;;24.38;13.35;;;9.10;99.90;;;;;;4980044;28;20069;-73
2022/01/02 03:27:06;;;;;;;23.52;12.05;;;9.10;99.90;;;;;;4967752;28;20507;-74
2022/01/02 03:29:32;;;;;;;22.48;11.48;;;9.20;99.90;;;;;;4958650;28;20049;-73
2022/01/02 03:32:00;;;;;;;22.30;11.85;;;9.30;99.90;;;;;;4979007;28;20467;-74
2022/01/02 03:34:27;;;;;;;22.00;11.57;;;9.30;99.90;;;;;;4995303;28;20062;-74
2022/01/02 03:36:54;;;;;;;20.60;12.20;;;9.20;99.90;;;;;;4947514;28;20055;-74
2022/01/02 03:39:20;;;;;;;20.63;11.90;;;9.20;99.90;;;;;;4979431;28;20058;-73
2022/01/02 03:41:48;;;;;;;27.55;13.20;;;9.20;99.90;;;;;;4993660;28;20263;-74
2022/01/02 03:44:15;;;;;;;19.67;11.00;;;9.20;99.90;;;;;;4992160;28;20050;-73
2022/01/02 03:46:42;;;;;;;21.88;11.73;;;9.30;99.90;;;;;;4996687;28;20142;-74
2022/01/02 03:49:11;;;;;;;21.60;9.70;;;9.30;99.90;;;;;;4978110;28;20624;-74
2022/01/02 03:51:38;;;;;;;19.63;10.38;;;9.30;99.90;;;;;;4994479;28;20066;-74
2022/01/02 03:54:05;;;;;;;16.25;9.07;;;9.20;99.90;;;;;;4973878;28;20062;-74
2022/01/02 03:56:31;;;;;;;18.58;8.02;;;9.20;99.90;;;;;;4981975;28;20447;-74
2022/01/02 03:58:58;;;;;;;18.45;9.18;;;9.30;99.90;;;;;;4981898;28;20050;-73
2022/01/02 04:01:25;;;;;;;14.95;7.25;;;9.30;99.90;;;;;;4981603;28;20636;-74
2022/01/02 04:03:52;;;;;;;10.63;6.55;;;9.40;99.90;;;;;;4981055;28;20053;-74
2022/01/02 04:06:19;;;;;;;11.35;6.72;;;9.40;99.90;;;;;;4982237;28;20473;-74
2022/01/02 04:08:46;;;;;;;16.83;7.68;;;9.40;99.90;;;;;;4980317;28;20263;-74
2022/01/02 04:11:13;;;;;;;14.18;7.72;;;9.40;99.90;;;;;;4980940;28;20054;-75
2022/01/02 04:13:40;;;;;;;15.80;7.25;;;9.30;99.90;;;;;;4974585;28;20070;-73
2022/01/02 04:16:06;;;;;;;13.68;7.13;;;9.40;99.90;;;;;;4981120;28;20066;-74
2022/01/02 04:18:34;;;;;;;12.25;6.43;;;9.50;99.90;;;;;;4974920;28;20376;-74
2022/01/02 04:21:01;;;;;;;10.10;5.78;;;9.40;99.90;;;;;;4997407;28;20089;-74
2022/01/02 04:23:28;;;;;;;11.13;6.80;;;9.50;99.90;;;;;;4962357;28;20318;-75
2022/01/02 04:25:55;;;;;;;15.70;6.13;;;9.50;99.90;;;;;;4977982;28;20109;-74
2022/01/02 04:28:22;;;;;;;15.07;6.03;;;9.60;99.90;;;;;;4995643;28;20051;-74
2022/01/02 04:30:49;;;;;;;17.55;7.45;;;9.60;99.90;;;;;;4982086;28;20046;-74
2022/01/02 04:33:17;;;;;;;14.32;6.90;;;9.60;99.90;;;;;;4962361;28;20085;-75
2022/01/02 04:35:45;;;;;;;10.70;5.82;;;9.60;99.90;;;;;;4961467;28;20121;-73
2022/01/02 04:38:13;;;;;;;9.88;5.60;;;9.70;99.90;;;;;;4980913;28;20181;-74
2022/01/02 04:40:41;;;;;;;12.82;4.80;;;9.80;99.90;;;;;;4965038;28;20060;-73
2022/01/02 04:43:08;;;;;;;8.13;4.50;;;9.90;99.90;;;;;;4997184;28;20054;-75
2022/01/02 04:45:36;;;;;;;12.65;4.93;;;9.90;99.90;;;;;;4985115;28;20509;-75
2022/01/02 04:48:04;;;;;;;11.45;4.80;;;10.10;99.90;;;;;;4963400;28;20038;-74
2022/01/02 04:50:31;;;;;;;14.50;5.20;;;10.20;99.90;;;;;;4979818;28;20328;-74
2022/01/02 04:52:58;;;;;;;9.60;5.57;;;10.30;99.90;;;;;;4949366;28;20063;-74
2022/01/02 04:55:25;;;;;;;12.20;4.95;;;10.40;99.90;;;;;;4980323;28;20144;-74
2022/01/02 04:57:52;;;;;;;12.25;4.95;;;10.40;99.90;;;;;;4985530;28;20543;-74
2022/01/02 05:00:19;;;;;;;15.32;5.35;;;10.50;99.90;;;;;;4979198;28;20122;-75
2022/01/02 05:02:52;;;;;;;14.30;4.95;;;10.60;99.90;;;;;;4987646;28;20123;-74
2022/01/02 05:05:20;;;;;;;14.82;5.07;;;10.60;99.90;;;;;;4991177;28;20043;-73
2022/01/02 05:07:47;;;;;;;15.82;4.95;;;10.70;99.90;;;;;;4976574;28;20061;-74
2022/01/02 05:10:14;;;;;;;9.23;4.00;;;10.70;99.90;;;;;;4979209;28;20042;-74
2022/01/02 05:12:41;;;;;;;10.77;4.57;;;10.70;99.90;;;;;;4978890;28;20517;-74
2022/01/02 05:15:08;;;;;;;11.73;4.05;;;10.90;99.90;;;;;;4977156;28;20137;-74
2022/01/02 05:17:35;;;;;;;15.10;4.63;;;10.90;99.90;;;;;;4989616;28;20081;-74
2022/01/02 05:20:03;;;;;;;14.15;4.15;;;10.90;99.90;;;;;;4979883;28;20046;-74
2022/01/02 05:22:32;;;;;;;11.65;4.18;;;10.90;99.90;;;;;;4980522;28;20137;-73
2022/01/02 05:24:59;;;;;;;14.27;3.88;;;11.00;99.90;;;;;;4980200;28;20084;-73
2022/01/02 05:27:26;;;;;;;13.20;4.30;;;11.10;99.90;;;;;;4976381;28;20230;-73
2022/01/02 05:29:53;;;;;;;15.23;4.15;;;11.20;99.90;;;;;;4977879;28;20479;-74
2022/01/02 05:32:19;;;;;;;13.95;5.07;;;11.20;99.90;;;;;;4991939;28;20789;-74
2022/01/02 05:34:46;;;;;;;14.63;4.45;;;11.20;99.90;;;;;;4982347;28;20731;-75
2022/01/02 05:37:13;;;;;;;18.23;4.60;;;11.10;99.90;;;;;;4979690;28;20526;-75
2022/01/02 05:39:40;;;;;;;19.20;4.85;;;11.10;99.90;;;;;;4980986;28;20864;-75
2022/01/02 05:42:07;;;;;;;13.50;4.15;;;11.10;99.90;;;;;;4978967;28;20054;-75
2022/01/02 05:44:35;;;;;;;18.83;4.07;;;11.10;99.90;;;;;;4981550;28;20450;-75
2022/01/02 05:47:02;;;;;;;11.27;4.32;;;11.10;99.90;;;;;;4985293;28;20480;-75
2022/01/02 05:49:29;;;;;;;17.83;4.00;;;11.10;99.90;;;;;;4996061;28;20049;-75
2022/01/02 05:51:56;;;;;;;14.63;3.33;;;11.10;99.90;;;;;;4960467;28;20299;-73
2022/01/02 05:54:23;;;;;;;12.25;4.53;;;11.20;99.90;;;;;;4960547;28;20050;-73
2022/01/02 05:56:51;;;;;;;13.65;3.10;;;11.20;99.90;;;;;;4959085;28;20047;-74
2022/01/02 05:59:18;;;;;;;14.30;3.67;;;11.20;99.90;;;;;;4957318;28;20101;-73
2022/01/02 06:01:46;;;;;;;10.60;3.17;;;11.30;99.90;;;;;;4966424;28;20398;-73
2022/01/02 06:04:13;;;;;;;12.50;2.80;;;11.40;99.90;;;;;;4970081;28;20042;-73
2022/01/02 06:06:40;;;;;;;11.02;2.97;;;11.40;99.90;;;;;;4983747;28;20042;-74
2022/01/02 06:09:13;;;;;;;20.02;3.55;;;11.50;99.90;;;;;;4971814;28;20473;-73
2022/01/02 06:11:40;;;;;;;16.58;3.00;;;11.50;99.90;;;;;;4946243;28;20047;-75
2022/01/02 06:14:07;;;;;;;15.10;2.80;;;11.60;99.90;;;;;;4932258;29;20050;-75
2022/01/02 06:16:35;;;;;;;8.75;3.47;;;11.50;99.90;;;;;;4916780;28;20043;-78
2022/01/02 06:19:02;;;;;;;13.15;4.05;;;11.50;99.90;;;;;;4946285;28;20051;-78
2022/01/02 06:21:29;;;;;;;10.70;4.30;;;11.60;99.90;;;;;;4888922;29;20475;-77
2022/01/02 06:23:55;;;;;;;12.70;2.85;;;11.60;99.90;;;;;;4911624;29;20249;-76
2022/01/02 06:26:22;;;;;;;13.73;2.40;;;11.60;99.90;;;;;;4897680;29;20056;-78
2022/01/02 06:28:49;;;;;;;15.45;3.60;;;11.60;99.90;;;;;;4899708;29;20051;-77
2022/01/02 06:31:17;;;;;;;10.43;2.85;;;11.60;99.90;;;;;;4894213;29;20052;-77
2022/01/02 06:33:48;;;;;;;12.32;3.83;;;11.60;99.90;;;;;;4910790;29;20119;-78
2022/01/02 06:36:15;;;;;;;14.18;3.42;;;11.60;99.90;;;;;;4921351;28;20040;-77
2022/01/02 06:38:42;;;;;;;14.02;2.67;;;11.70;99.90;;;;;;4916470;29;20154;-77
2022/01/02 06:41:11;;;;;;;10.07;2.88;;;11.70;99.90;;;;;;4915962;28;20055;-77
2022/01/02 06:43:39;;;;;;;13.52;2.80;;;11.80;99.90;;;;;;4933275;29;20427;-76
2022/01/02 06:46:07;;;;;;;12.80;2.70;;;11.80;99.90;;;;;;4930558;28;20459;-77
2022/01/02 06:48:34;;;;;;;15.85;3.53;;;11.80;99.90;;;;;;4931367;28;20043;-76
2022/01/02 06:51:02;;;;;;;11.55;3.22;;;11.80;99.90;;;;;;4934035;28;20490;-77
2022/01/02 06:53:29;;;;;;;12.82;3.28;;;11.80;99.90;;;;;;4919120;28;20091;-78
2022/01/02 06:55:56;;;;;;;8.80;3.00;;;11.80;99.90;;;;;;4912903;29;20056;-77
2022/01/02 06:58:22;;;;;;;7.30;2.90;;;11.80;99.90;;;;;;4912413;29;20066;-77
2022/01/02 07:00:51;;;;;;;11.25;3.42;;;11.80;99.90;;;;;;4912523;29;20478;-78
2022/01/02 07:03:18;;;;;;;10.30;3.05;;;11.80;99.90;;;;;;4909209;29;20056;-77
2022/01/02 07:05:45;;;;;;;7.47;2.83;;;11.80;99.90;;;;;;4923691;28;20361;-77
2022/01/02 07:08:12;;;;;;;11.07;3.03;;;11.80;99.90;;;;;;4929926;28;20054;-76
2022/01/02 07:10:40;;;;;;;15.00;3.40;;;11.80;99.90;;;;;;4915020;29;20086;-77
2022/01/02 07:13:07;;;;;;;16.92;4.30;;;11.80;99.90;;;;;;4917158;29;20054;-78
2022/01/02 07:15:34;;;;;;;13.73;5.18;;;11.80;99.90;;;;;;4916143;28;20126;-78
2022/01/02 07:18:01;;;;;;;25.02;7.55;;;11.80;99.90;;;;;;4902768;28;20061;-78
2022/01/02 07:20:28;;;;;;;11.23;4.20;;;11.80;99.90;;;;;;4933638;28;20055;-77
2022/01/02 07:22:55;;;;;;;9.45;3.85;;;11.80;99.90;;;;;;4921808;28;20324;-76
2022/01/02 07:25:21;;;;;;;21.83;7.20;;;11.80;99.90;;;;;;4915812;28;20055;-77
2022/01/02 07:27:48;;;;;;;16.02;5.22;;;11.80;99.90;;;;;;4919794;29;20105;-78
2022/01/02 07:30:15;;;;;;;19.27;6.38;;;11.70;99.90;;;;;;4922365;28;20380;-77
2022/01/02 07:32:46;;;;;;;18.58;6.30;;;11.70;99.90;;;;;;4920817;29;20079;-77
2022/01/02 07:35:12;;;;;;;14.35;4.30;;;11.70;99.90;;;;;;4920424;28;20248;-75
2022/01/02 07:37:39;;;;;;;16.25;4.07;;;11.60;99.90;;;;;;4922299;29;20103;-75
2022/01/02 07:40:07;;;;;;;8.60;4.05;;;11.60;99.90;;;;;;4936949;28;20316;-74
2022/01/02 07:42:34;;;;;;;12.95;3.95;;;11.60;99.90;;;;;;4938073;28;20059;-75
2022/01/02 07:45:08;;;;;;;13.93;5.95;;;11.60;99.90;;;;;;4936749;28;20059;-75
2022/01/02 07:47:37;;;;;;;15.95;7.43;;;11.60;99.90;;;;;;4939343;28;20273;-75
2022/01/02 07:50:04;;;;;;;10.55;4.60;;;11.60;99.90;;;;;;4934244;28;20115;-75
2022/01/02 07:52:31;;;;;;;12.82;4.97;;;11.70;99.90;;;;;;4916139;29;20523;-75
2022/01/02 07:54:58;;;;;;;16.55;6.45;;;11.70;99.90;;;;;;4912324;29;20055;-75
2022/01/02 07:57:24;;;;;;;15.27;5.15;;;11.70;99.90;;;;;;4913667;29;20059;-75
2022/01/02 07:59:51;;;;;;;11.70;5.18;;;11.70;99.90;;;;;;4901433;29;20262;-75
2022/01/02 08:02:40;;;;;;;10.18;4.65;;;11.70;99.90;;;;;;4918513;29;20048;-75
2022/01/02 08:05:10;;;;;;;11.20;4.38;;;11.70;99.90;;;;;;4918448;29;20133;-75
2022/01/02 08:07:40;;;;;;;12.02;5.60;;;11.70;99.90;;;;;;4945884;28;20044;-75
2022/01/02 08:10:08;;;;;;;14.15;5.78;;;11.60;99.90;;;;;;4937408;28;20051;-74
2022/01/02 08:12:35;;;;;;;11.75;6.28;;;11.60;99.90;;;;;;4920373;29;20811;-74
2022/01/02 08:15:02;;;;;;;14.25;5.07;;;11.70;99.90;;;;;;4936906;28;20074;-74
2022/01/02 08:17:30;;;;;;;11.45;4.68;;;11.60;99.90;;;;;;4921813;29;20051;-75
2022/01/02 08:19:56;;;;;;;8.63;4.80;;;11.60;99.90;;;;;;4937377;28;20056;-75
2022/01/02 08:22:23;;;;;;;11.73;5.18;;;11.60;99.90;;;;;;4937651;28;20546;-76
2022/01/02 08:24:50;;;;;;;12.52;6.18;;;11.50;99.90;;;;;;4902511;29;20411;-75
2022/01/02 08:27:17;;;;;;;16.10;5.97;;;11.40;99.90;;;;;;4920195;28;20043;-75
2022/01/02 08:29:43;;;;;;;10.00;5.63;;;11.30;99.90;;;;;;4921576;29;20051;-75
2022/01/02 08:32:10;;;;;;;11.55;5.15;;;11.20;99.90;;;;;;4922438;28;20056;-75
2022/01/02 08:34:37;;;;;;;13.75;4.95;;;11.20;99.90;;;;;;4924319;29;20047;-78
2022/01/02 08:37:04;;;;;;;14.65;5.45;;;11.00;99.90;;;;;;4901285;29;20052;-77
2022/01/02 08:39:32;;;;;;;12.20;5.28;;;11.00;99.90;;;;;;4917122;29;20122;-74
2022/01/02 08:41:59;;;;;;;13.73;5.57;;;10.90;99.90;;;;;;4916193;29;20143;-75
2022/01/02 08:44:26;;;;;;;14.98;6.13;;;10.90;99.90;;;;;;4919483;29;20044;-69
2022/01/02 08:46:53;;;;;;;13.98;7.80;;;10.60;99.90;;;;;;4933060;28;20548;-75
2022/01/02 08:49:20;;;;;;;20.13;9.73;;;10.40;99.90;;;;;;4933507;28;20142;-71
2022/01/02 08:51:47;;;;;;;19.75;11.43;;;10.20;99.90;;;;;;4919973;28;20601;-74
2022/01/02 08:54:14;;;;;;;23.70;10.30;;;10.10;99.90;;;;;;4913902;29;20051;-75
2022/01/02 08:56:41;;;;;;;19.17;11.15;;;10.10;99.90;;;;;;4930673;28;20699;-73
2022/01/02 08:59:08;;;;;;;23.33;13.15;;;9.90;99.90;;;;;;4932221;28;20083;-72
2022/01/02 09:01:34;;;;;;;23.50;11.88;;;9.90;99.90;;;;;;4918307;28;20580;-74
2022/01/02 09:04:01;;;;;;;24.40;11.57;;;9.70;99.90;;;;;;4918129;29;20498;-75
2022/01/02 09:06:28;;;;;;;22.20;11.00;;;9.60;99.90;;;;;;4915499;29;20138;-73
2022/01/02 09:08:55;;;;;;;17.08;10.52;;;9.50;99.90;;;;;;4928375;28;20044;-75
2022/01/02 09:11:23;;;;;;;14.85;9.93;;;9.50;99.90;;;;;;4898851;29;20044;-73
2022/01/02 09:13:50;;;;;;;18.60;10.48;;;9.40;99.90;;;;;;4931030;29;20118;-75
2022/01/02 09:16:17;;;;;;;18.55;9.93;;;9.40;99.90;;;;;;4930823;28;20130;-75
2022/01/02 09:18:44;;;;;;;18.08;10.60;;;9.40;99.90;;;;;;4915949;29;20051;-75
2022/01/02 09:21:11;;;;;;;13.93;8.57;;;9.40;99.90;;;;;;4944081;28;20048;-75
2022/01/02 09:23:38;;;;;;;17.17;8.63;;;9.50;99.90;;;;;;4917181;29;20052;-75
2022/01/02 09:26:05;;;;;;;13.63;7.22;;;9.50;99.90;;;;;;4927654;28;20124;-75
2022/01/02 09:28:31;;;;;;;14.30;7.22;;;9.60;99.90;;;;;;4918089;29;20297;-76
2022/01/02 09:30:58;;;;;;;11.88;6.70;;;9.60;99.90;;;;;;4917911;28;20060;-76
2022/01/02 09:33:25;;;;;;;15.00;7.25;;;9.70;99.90;;;;;;4907568;29;20301;-75
2022/01/02 09:35:52;;;;;;;10.90;6.82;;;9.70;99.90;;;;;;4909897;29;20058;-74
2022/01/02 09:38:19;;;;;;;9.70;5.63;;;9.80;99.90;;;;;;4923022;29;20051;-76
2022/01/02 09:40:47;;;;;;;15.38;6.25;;;9.90;99.90;;;;;;4911366;29;20052;-75
2022/01/02 09:43:16;;;;;;;10.77;6.40;;;9.90;99.90;;;;;;4916708;29;20055;-74
2022/01/02 09:45:48;;;;;;;11.15;5.80;;;9.90;99.90;;;;;;4917024;28;20051;-75
2022/01/02 09:48:15;;;;;;;8.27;5.25;;;10.00;99.90;;;;;;4916337;29;20636;-74
2022/01/02 09:50:43;;;;;;;12.90;6.72;;;10.10;99.90;;;;;;4916853;28;20047;-73
2022/01/02 09:53:10;;;;;;;13.70;5.57;;;10.10;99.90;;;;;;4914716;29;20056;-74
2022/01/02 09:55:37;;;;;;;14.18;4.57;;;10.20;99.90;;;;;;4925670;28;20514;-74
2022/01/02 09:58:10;;;;;;;11.20;5.00;;;10.20;99.90;;;;;;4931028;29;20059;-75
2022/01/02 10:00:39;;;;;;;7.30;4.80;;;10.30;99.90;;;;;;4917161;28;20043;-74
2022/01/02 10:03:09;;;;;;;11.52;4.72;;;10.30;99.90;;;;;;4914750;29;20064;-74
2022/01/02 10:05:50;;;;;;;16.58;4.75;;;10.30;99.90;;;;;;4930815;28;20106;-73
2022/01/02 10:08:25;;;;;;;10.68;5.30;;;10.30;99.90;;;;;;4935489;28;20055;-76
2022/01/02 10:11:00;;;;;;;12.27;4.20;;;10.40;99.90;;;;;;4932334;28;20227;-73
2022/01/02 10:13:40;;;;;;;8.60;4.63;;;10.40;99.90;;;;;;4950222;28;20051;-75
2022/01/02 10:16:22;;;;;;;15.13;5.20;;;10.40;99.90;;;;;;4921584;28;20086;-76
2022/01/02 10:18:52;;;;;;;12.45;5.15;;;10.50;99.90;;;;;;4921646;29;20051;-74
2022/01/02 10:21:32;;;;;;;13.98;5.25;;;10.50;99.90;;;;;;4914570;29;20062;-76
2022/01/02 10:24:22;;;;;;;11.20;5.43;;;10.50;99.90;;;;;;4907518;29;20047;-76
2022/01/02 10:27:04;;;;;;;9.40;4.68;;;10.50;99.90;;;;;;4913689;29;20350;-73
2022/01/02 10:29:50;;;;;;;9.52;5.63;;;10.30;99.90;;;;;;4917116;29;20530;-73
2022/01/02 10:32:43;;;;;;;13.13;6.78;;;10.20;99.90;;;;;;4930850;28;20605;-74
2022/01/02 10:35:13;;;;;;;16.23;7.95;;;10.10;99.90;;;;;;4917033;28;20059;-75
2022/01/02 10:37:42;;;;;;;14.65;6.90;;;10.00;99.90;;;;;;4912205;28;20084;-76
2022/01/02 10:40:38;;;;;;;13.05;6.30;;;10.00;99.90;;;;;;4895248;29;20052;-76
2022/01/02 10:43:08;;;;;;;12.52;7.25;;;9.90;99.90;;;;;;4914612;29;20052;-75
2022/01/02 10:45:39;;;;;;;13.63;7.55;;;9.90;99.90;;;;;;4913796;29;20202;-75
2022/01/02 10:48:14;;;;;;;8.07;5.95;;;9.90;99.90;;;;;;4931985;28;20052;-76
2022/01/02 10:51:04;;;;;;;17.02;7.90;;;9.90;99.90;;;;;;4930332;28;20043;-74
2022/01/02 10:53:34;;;;;;;16.08;7.07;;;10.00;99.90;;;;;;4927609;29;20055;-75
2022/01/02 10:56:03;;;;;;;10.75;6.72;;;10.00;99.90;;;;;;4913960;28;20764;-76
2022/01/02 10:58:30;;;;;;;8.18;5.90;;;10.00;99.90;;;;;;4914682;29;20091;-75
2022/01/02 11:01:02;;;;;;;10.55;5.95;;;10.00;99.90;;;;;;4930530;28;20056;-74
2022/01/02 11:03:30;;;;;;;13.13;6.80;;;10.00;99.90;;;;;;4904324;29;20120;-75
2022/01/02 11:06:01;;;;;;;9.55;6.50;;;10.00;99.90;;;;;;4907000;28;20050;-74
2022/01/02 11:08:32;;;;;;;9.70;6.15;;;10.10;99.90;;;;;;4928800;29;20052;-76
2022/01/02 11:11:01;;;;;;;12.23;6.25;;;10.20;99.90;;;;;;4912866;28;20059;-76
2022/01/02 11:13:28;;;;;;;10.55;6.22;;;10.30;99.90;;;;;;4913138;29;20106;-74
2022/01/02 11:15:55;;;;;;;11.40;6.47;;;10.20;99.90;;;;;;4928401;28;20087;-73
2022/01/02 11:18:22;;;;;;;14.02;7.50;;;10.20;99.90;;;;;;4936428;28;20055;-76
2022/01/02 11:20:49;;;;;;;13.32;7.85;;;10.30;99.90;;;;;;4947945;28;20213;-75
2022/01/02 11:23:25;;;;;;;13.13;8.32;;;10.30;99.90;;;;;;4926915;29;20222;-74
2022/01/02 11:26:15;;;;;;;12.98;7.80;;;10.20;99.90;;;;;;4913195;29;20700;-75
2022/01/02 11:29:02;;;;;;;13.85;7.80;;;10.20;99.90;;;;;;4895939;29;20067;-75
2022/01/02 11:31:31;;;;;;;20.73;16.05;;;10.30;99.90;;;;;;4927369;28;20063;-76
2022/01/02 11:34:00;;;;;;;13.82;7.60;;;10.30;99.90;;;;;;4895420;29;20052;-78
2022/01/02 11:36:33;;;;;;;12.95;6.57;;;10.30;99.90;;;;;;4901514;29;20059;-77
2022/01/02 11:39:07;;;;;;;8.73;5.63;;;10.30;99.90;;;;;;4912354;29;20060;-75
2022/01/02 11:41:53;;;;;;;11.93;5.75;;;10.60;99.90;;;;;;4913215;28;20172;-75
2022/01/02 11:44:21;;;;;;;11.00;6.13;;;10.70;99.90;;;;;;4923986;29;20134;-76
2022/01/02 11:46:58;;;;;;;9.27;5.82;;;10.80;99.90;;;;;;4917670;28;20593;-75
2022/01/02 11:49:43;;;;;;;9.07;6.40;;;11.00;99.90;;;;;;4921919;29;20151;-75
2022/01/02 11:52:12;;;;;;;9.43;8.02;;;11.30;99.90;;;;;;4914127;28;20096;-74
2022/01/02 11:54:41;;;;;;;12.77;11.48;;;11.80;99.90;;;;;;4924579;29;20070;-72
2022/01/02 11:57:11;;;;;;;10.95;9.95;;;12.40;99.90;;;;;;4916727;29;20558;-73
2022/01/02 11:59:43;;;;;;;10.98;10.07;;;12.60;99.90;;;;;;4896084;29;20470;-75
2022/01/02 12:02:13;;;;;;;10.27;9.40;;;12.60;99.90;;;;;;4909708;29;20432;-74
2022/01/02 12:05:14;;;;;;;10.25;9.32;;;12.50;99.90;;;;;;4909728;29;20428;-73
2022/01/02 12:07:45;;;;;;;9.57;8.65;;;12.60;99.90;;;;;;4913178;28;20048;-73
2022/01/02 12:12:59;;;;;;;11.10;10.02;;;12.50;99.90;;;;;;4961239;28;20301;-74
2022/01/02 12:15:32;;;;;;;10.57;9.88;;;12.60;99.90;;;;;;4962783;28;20847;-73
2022/01/02 12:18:31;;;;;;;10.07;9.35;;;12.50;99.90;;;;;;4961876;28;20049;-73
2022/01/02 12:21:04;;;;;;;10.38;9.45;;;12.50;99.90;;;;;;4963437;28;20091;-74
2022/01/02 12:23:34;;;;;;;10.68;9.82;;;12.30;99.90;;;;;;4961467;28;20424;-75
2022/01/02 12:26:06;;;;;;;10.93;9.57;;;12.30;99.90;;;;;;4970797;28;20105;-74
2022/01/02 12:28:38;;;;;;;10.80;9.98;;;12.30;99.90;;;;;;4963679;28;20137;-74
2022/01/02 12:31:07;;;;;;;11.57;10.48;;;12.20;99.90;;;;;;4963795;28;20039;-74
2022/01/02 12:33:35;;;;;;;10.13;9.13;;;12.20;99.90;;;;;;4965130;28;20082;-74
2022/01/02 12:36:20;;;;;;;8.80;8.02;;;12.10;99.90;;;;;;4962674;28;20050;-74
2022/01/02 12:38:55;;;;;;;9.30;7.43;;;12.00;99.90;;;;;;4962342;28;20050;-73
2022/01/02 12:41:27;;;;;;;;;;;12.00;99.90;;;;;;4963989;28;21023;-74
2022/01/02 12:43:59;;;;;;;7.85;7.05;;;12.00;99.90;;;;;;4963429;28;19926;-75
2022/01/02 12:46:40;;;;;;;8.75;7.03;;;11.90;99.90;;;;;;4962715;28;20046;-73
2022/01/02 12:49:08;;;;;;;8.27;7.00;;;12.00;99.90;;;;;;4961704;28;20058;-75
2022/01/02 12:51:38;;;;;;;10.95;6.32;;;12.00;99.90;;;;;;4962818;28;20070;-75
2022/01/02 12:54:08;;;;;;;9.82;7.53;;;11.90;99.90;;;;;;4965890;28;20050;-74
2022/01/02 12:56:35;;;;;;;10.40;7.13;;;11.90;99.90;;;;;;4954807;28;20081;-74
2022/01/02 12:59:21;;;;;;;11.90;7.30;;;12.00;99.90;;;;;;4965073;28;20077;-75
2022/01/02 13:02:10;;;;;;;9.45;6.15;;;11.90;99.90;;;;;;4963956;28;20058;-73